< < Back
Terminal Aerodrome Forecast


Current Version              Previous Versions:   1  2  3  4  5  6  7  8  9  

Terminal Aerodrome Forecast

716
FTUS42 KCHS 300535
TAFCHS
TAF
KCHS 300535Z 3006/3106 VRB03KT P6SM SCT015
     FM301400 05006KT P6SM SCT030
     FM301800 14008KT P6SM SCT045
     FM310100 20006KT P6SM SCT025 SCT250=

Latest METAR

534
SAUS80 KWBC 310700
MTRCHS
METAR KCHS 310656Z 22007KT 10SM FEW200 27/22 A2989 RMK AO2 SLP120
T02670222 $


USA.gov is the U.S. government's official web portal to all federal, state and local government web resources and services.